sensor_id;sensor_type;location;lat;lon;timestamp;P1;durP1;ratioP1;P2;durP2;ratioP2
31782;SDS011;18351;47.560;9.708;2024-03-17T00:00:21;7.07;;;3.20;;
31782;SDS011;18351;47.560;9.708;2024-03-17T00:02:47;8.20;;;3.85;;
31782;SDS011;18351;47.560;9.708;2024-03-17T00:05:12;5.95;;;3.25;;
31782;SDS011;18351;47.560;9.708;2024-03-17T00:07:39;4.97;;;2.83;;
31782;SDS011;18351;47.560;9.708;2024-03-17T00:10:05;3.85;;;2.65;;
31782;SDS011;18351;47.560;9.708;2024-03-17T00:12:32;4.47;;;3.20;;
31782;SDS011;18351;47.560;9.708;2024-03-17T00:14:58;6.35;;;3.22;;
31782;SDS011;18351;47.560;9.708;2024-03-17T00:17:24;3.83;;;2.70;;
31782;SDS011;18351;47.560;9.708;2024-03-17T00:19:49;5.60;;;3.22;;
31782;SDS011;18351;47.560;9.708;2024-03-17T00:22:15;3.00;;;2.70;;
31782;SDS011;18351;47.560;9.708;2024-03-17T00:24:42;5.10;;;3.47;;
31782;SDS011;18351;47.560;9.708;2024-03-17T00:27:08;6.22;;;2.85;;
31782;SDS011;18351;47.560;9.708;2024-03-17T00:29:36;6.93;;;3.10;;
31782;SDS011;18351;47.560;9.708;2024-03-17T00:32:02;5.05;;;3.95;;
31782;SDS011;18351;47.560;9.708;2024-03-17T00:34:27;6.65;;;2.53;;
31782;SDS011;18351;47.560;9.708;2024-03-17T00:36:53;5.07;;;2.70;;
31782;SDS011;18351;47.560;9.708;2024-03-17T00:39:18;3.65;;;2.67;;
31782;SDS011;18351;47.560;9.708;2024-03-17T00:41:44;11.25;;;2.78;;
31782;SDS011;18351;47.560;9.708;2024-03-17T00:44:10;5.05;;;2.78;;
31782;SDS011;18351;47.560;9.708;2024-03-17T00:46:35;3.63;;;2.60;;
31782;SDS011;18351;47.560;9.708;2024-03-17T00:49:01;3.83;;;2.80;;
31782;SDS011;18351;47.560;9.708;2024-03-17T00:51:27;4.93;;;2.80;;
31782;SDS011;18351;47.560;9.708;2024-03-17T00:53:52;3.38;;;2.70;;
31782;SDS011;18351;47.560;9.708;2024-03-17T00:56:18;3.63;;;2.80;;
31782;SDS011;18351;47.560;9.708;2024-03-17T00:58:43;4.80;;;2.95;;
31782;SDS011;18351;47.560;9.708;2024-03-17T01:01:12;4.63;;;2.60;;
31782;SDS011;18351;47.560;9.708;2024-03-17T01:03:37;4.47;;;2.88;;
31782;SDS011;18351;47.560;9.708;2024-03-17T01:06:03;5.75;;;3.05;;
31782;SDS011;18351;47.560;9.708;2024-03-17T01:08:29;5.47;;;2.38;;
31782;SDS011;18351;47.560;9.708;2024-03-17T01:10:55;6.63;;;2.72;;
31782;SDS011;18351;47.560;9.708;2024-03-17T01:13:20;3.00;;;2.60;;
31782;SDS011;18351;47.560;9.708;2024-03-17T01:15:50;5.57;;;2.70;;
31782;SDS011;18351;47.560;9.708;2024-03-17T01:18:17;2.83;;;2.50;;
31782;SDS011;18351;47.560;9.708;2024-03-17T01:20:43;3.92;;;2.42;;
31782;SDS011;18351;47.560;9.708;2024-03-17T01:23:09;5.47;;;2.65;;
31782;SDS011;18351;47.560;9.708;2024-03-17T01:25:34;4.25;;;2.95;;
31782;SDS011;18351;47.560;9.708;2024-03-17T01:28:02;3.72;;;3.13;;
31782;SDS011;18351;47.560;9.708;2024-03-17T01:30:31;4.15;;;2.78;;
31782;SDS011;18351;47.560;9.708;2024-03-17T01:32:57;5.40;;;2.25;;
31782;SDS011;18351;47.560;9.708;2024-03-17T01:35:24;5.05;;;2.60;;
31782;SDS011;18351;47.560;9.708;2024-03-17T01:37:50;3.28;;;2.70;;
31782;SDS011;18351;47.560;9.708;2024-03-17T01:40:16;4.03;;;2.50;;
31782;SDS011;18351;47.560;9.708;2024-03-17T01:42:42;6.45;;;2.80;;
31782;SDS011;18351;47.560;9.708;2024-03-17T01:47:50;3.28;;;2.30;;
31782;SDS011;18351;47.560;9.708;2024-03-17T01:50:16;5.53;;;2.70;;
31782;SDS011;18351;47.560;9.708;2024-03-17T01:52:49;5.40;;;3.00;;
31782;SDS011;18351;47.560;9.708;2024-03-17T01:55:19;3.28;;;2.97;;
31782;SDS011;18351;47.560;9.708;2024-03-17T01:57:45;4.63;;;2.90;;
31782;SDS011;18351;47.560;9.708;2024-03-17T02:00:11;3.97;;;3.10;;
31782;SDS011;18351;47.560;9.708;2024-03-17T02:02:37;3.95;;;2.67;;
31782;SDS011;18351;47.560;9.708;2024-03-17T02:05:03;3.53;;;2.78;;
31782;SDS011;18351;47.560;9.708;2024-03-17T02:07:29;4.30;;;3.05;;
31782;SDS011;18351;47.560;9.708;2024-03-17T02:09:56;3.47;;;2.28;;
31782;SDS011;18351;47.560;9.708;2024-03-17T02:12:22;5.25;;;3.38;;
31782;SDS011;18351;47.560;9.708;2024-03-17T02:14:48;3.50;;;2.90;;
31782;SDS011;18351;47.560;9.708;2024-03-17T02:17:14;4.15;;;2.78;;
31782;SDS011;18351;47.560;9.708;2024-03-17T02:19:39;5.07;;;2.78;;
31782;SDS011;18351;47.560;9.708;2024-03-17T02:22:08;4.28;;;2.60;;
31782;SDS011;18351;47.560;9.708;2024-03-17T02:24:39;7.38;;;2.75;;
31782;SDS011;18351;47.560;9.708;2024-03-17T02:27:04;3.20;;;2.65;;
31782;SDS011;18351;47.560;9.708;2024-03-17T02:29:30;3.67;;;2.53;;
31782;SDS011;18351;47.560;9.708;2024-03-17T02:31:55;5.57;;;2.42;;
31782;SDS011;18351;47.560;9.708;2024-03-17T02:34:21;4.07;;;2.70;;
31782;SDS011;18351;47.560;9.708;2024-03-17T02:36:46;7.63;;;2.85;;
31782;SDS011;18351;47.560;9.708;2024-03-17T02:39:12;4.47;;;2.67;;
31782;SDS011;18351;47.560;9.708;2024-03-17T02:41:58;3.40;;;2.67;;
31782;SDS011;18351;47.560;9.708;2024-03-17T02:44:32;3.63;;;2.17;;
31782;SDS011;18351;47.560;9.708;2024-03-17T02:46:59;4.45;;;2.83;;
31782;SDS011;18351;47.560;9.708;2024-03-17T02:49:25;6.00;;;2.35;;
31782;SDS011;18351;47.560;9.708;2024-03-17T02:52:05;3.65;;;2.65;;
31782;SDS011;18351;47.560;9.708;2024-03-17T02:54:35;6.38;;;2.03;;
31782;SDS011;18351;47.560;9.708;2024-03-17T02:57:01;3.92;;;2.60;;
31782;SDS011;18351;47.560;9.708;2024-03-17T02:59:27;4.32;;;2.50;;
31782;SDS011;18351;47.560;9.708;2024-03-17T03:01:53;4.15;;;2.78;;
31782;SDS011;18351;47.560;9.708;2024-03-17T03:04:19;4.00;;;2.42;;
31782;SDS011;18351;47.560;9.708;2024-03-17T03:06:45;6.82;;;3.03;;
31782;SDS011;18351;47.560;9.708;2024-03-17T03:09:11;5.03;;;2.60;;
31782;SDS011;18351;47.560;9.708;2024-03-17T03:11:45;3.95;;;2.70;;
31782;SDS011;18351;47.560;9.708;2024-03-17T03:14:11;4.03;;;2.78;;
31782;SDS011;18351;47.560;9.708;2024-03-17T03:16:37;6.25;;;2.90;;
31782;SDS011;18351;47.560;9.708;2024-03-17T03:19:03;4.60;;;2.72;;
31782;SDS011;18351;47.560;9.708;2024-03-17T03:21:30;9.25;;;2.92;;
31782;SDS011;18351;47.560;9.708;2024-03-17T03:23:56;4.25;;;2.28;;
31782;SDS011;18351;47.560;9.708;2024-03-17T03:26:21;2.92;;;2.28;;
31782;SDS011;18351;47.560;9.708;2024-03-17T03:28:48;4.00;;;2.58;;
31782;SDS011;18351;47.560;9.708;2024-03-17T03:31:14;4.85;;;2.92;;
31782;SDS011;18351;47.560;9.708;2024-03-17T03:33:40;5.82;;;3.08;;
31782;SDS011;18351;47.560;9.708;2024-03-17T03:36:07;5.07;;;2.80;;
31782;SDS011;18351;47.560;9.708;2024-03-17T03:38:36;5.38;;;3.20;;
31782;SDS011;18351;47.560;9.708;2024-03-17T03:41:15;5.50;;;2.95;;
31782;SDS011;18351;47.560;9.708;2024-03-17T03:43:41;3.22;;;2.70;;
31782;SDS011;18351;47.560;9.708;2024-03-17T03:46:08;3.08;;;2.65;;
31782;SDS011;18351;47.560;9.708;2024-03-17T03:48:34;5.60;;;3.15;;
31782;SDS011;18351;47.560;9.708;2024-03-17T03:51:09;3.70;;;2.92;;
31782;SDS011;18351;47.560;9.708;2024-03-17T03:53:35;3.17;;;2.80;;
31782;SDS011;18351;47.560;9.708;2024-03-17T03:56:05;5.43;;;2.90;;
31782;SDS011;18351;47.560;9.708;2024-03-17T03:58:34;4.60;;;2.78;;
31782;SDS011;18351;47.560;9.708;2024-03-17T04:01:04;5.82;;;2.85;;
31782;SDS011;18351;47.560;9.708;2024-03-17T04:03:31;5.47;;;2.83;;
31782;SDS011;18351;47.560;9.708;2024-03-17T04:06:04;4.25;;;2.72;;
31782;SDS011;18351;47.560;9.708;2024-03-17T04:08:35;6.30;;;3.08;;
31782;SDS011;18351;47.560;9.708;2024-03-17T04:11:02;6.13;;;2.60;;
31782;SDS011;18351;47.560;9.708;2024-03-17T04:13:29;3.08;;;2.58;;
31782;SDS011;18351;47.560;9.708;2024-03-17T04:15:55;3.63;;;2.67;;
31782;SDS011;18351;47.560;9.708;2024-03-17T04:18:22;5.30;;;2.90;;
31782;SDS011;18351;47.560;9.708;2024-03-17T04:20:49;4.93;;;2.72;;
31782;SDS011;18351;47.560;9.708;2024-03-17T04:23:19;6.05;;;3.17;;
31782;SDS011;18351;47.560;9.708;2024-03-17T04:25:45;6.13;;;2.88;;
31782;SDS011;18351;47.560;9.708;2024-03-17T04:28:11;2.95;;;2.50;;
31782;SDS011;18351;47.560;9.708;2024-03-17T04:30:36;6.45;;;2.80;;
31782;SDS011;18351;47.560;9.708;2024-03-17T04:33:02;6.15;;;3.08;;
31782;SDS011;18351;47.560;9.708;2024-03-17T04:35:28;5.22;;;2.50;;
31782;SDS011;18351;47.560;9.708;2024-03-17T04:37:54;5.03;;;2.50;;
31782;SDS011;18351;47.560;9.708;2024-03-17T04:40:22;5.55;;;2.60;;
31782;SDS011;18351;47.560;9.708;2024-03-17T04:42:47;3.65;;;2.22;;
31782;SDS011;18351;47.560;9.708;2024-03-17T04:45:13;5.97;;;2.60;;
31782;SDS011;18351;47.560;9.708;2024-03-17T04:47:38;2.97;;;2.28;;
31782;SDS011;18351;47.560;9.708;2024-03-17T04:50:04;2.70;;;1.83;;
31782;SDS011;18351;47.560;9.708;2024-03-17T04:52:30;3.95;;;2.42;;
31782;SDS011;18351;47.560;9.708;2024-03-17T04:54:56;5.07;;;3.05;;
31782;SDS011;18351;47.560;9.708;2024-03-17T04:57:22;4.10;;;2.70;;
31782;SDS011;18351;47.560;9.708;2024-03-17T04:59:47;4.03;;;2.42;;
31782;SDS011;18351;47.560;9.708;2024-03-17T05:02:13;3.50;;;2.65;;
31782;SDS011;18351;47.560;9.708;2024-03-17T05:04:38;5.60;;;2.15;;
31782;SDS011;18351;47.560;9.708;2024-03-17T05:07:04;11.13;;;2.42;;
31782;SDS011;18351;47.560;9.708;2024-03-17T05:09:30;4.90;;;3.28;;
31782;SDS011;18351;47.560;9.708;2024-03-17T05:11:55;3.72;;;2.10;;
31782;SDS011;18351;47.560;9.708;2024-03-17T05:14:21;4.78;;;2.13;;
31782;SDS011;18351;47.560;9.708;2024-03-17T05:16:50;4.50;;;2.30;;
31782;SDS011;18351;47.560;9.708;2024-03-17T05:19:16;6.68;;;2.75;;
31782;SDS011;18351;47.560;9.708;2024-03-17T05:21:42;2.75;;;2.30;;
31782;SDS011;18351;47.560;9.708;2024-03-17T05:24:09;3.05;;;2.20;;
31782;SDS011;18351;47.560;9.708;2024-03-17T05:26:36;2.85;;;2.13;;
31782;SDS011;18351;47.560;9.708;2024-03-17T05:29:01;3.33;;;2.08;;
31782;SDS011;18351;47.560;9.708;2024-03-17T05:31:27;3.08;;;2.45;;
31782;SDS011;18351;47.560;9.708;2024-03-17T05:33:53;3.38;;;2.38;;
31782;SDS011;18351;47.560;9.708;2024-03-17T05:36:18;5.18;;;2.30;;
31782;SDS011;18351;47.560;9.708;2024-03-17T05:38:46;3.17;;;2.28;;
31782;SDS011;18351;47.560;9.708;2024-03-17T05:41:12;3.35;;;2.30;;
31782;SDS011;18351;47.560;9.708;2024-03-17T05:43:38;5.22;;;2.65;;
31782;SDS011;18351;47.560;9.708;2024-03-17T05:46:05;2.75;;;2.45;;
31782;SDS011;18351;47.560;9.708;2024-03-17T05:48:32;4.60;;;2.90;;
31782;SDS011;18351;47.560;9.708;2024-03-17T05:51:00;4.25;;;3.10;;
31782;SDS011;18351;47.560;9.708;2024-03-17T05:53:27;6.22;;;2.60;;
31782;SDS011;18351;47.560;9.708;2024-03-17T05:55:53;7.43;;;3.55;;
31782;SDS011;18351;47.560;9.708;2024-03-17T05:58:20;4.97;;;3.55;;
31782;SDS011;18351;47.560;9.708;2024-03-17T06:00:45;6.63;;;4.05;;
31782;SDS011;18351;47.560;9.708;2024-03-17T06:03:11;9.00;;;4.78;;
31782;SDS011;18351;47.560;9.708;2024-03-17T06:05:37;8.10;;;5.13;;
31782;SDS011;18351;47.560;9.708;2024-03-17T06:08:07;8.15;;;5.00;;
31782;SDS011;18351;47.560;9.708;2024-03-17T06:10:34;7.03;;;5.80;;
31782;SDS011;18351;47.560;9.708;2024-03-17T06:13:01;6.10;;;4.40;;
31782;SDS011;18351;47.560;9.708;2024-03-17T06:15:27;10.57;;;4.88;;
31782;SDS011;18351;47.560;9.708;2024-03-17T06:17:53;13.38;;;8.10;;
31782;SDS011;18351;47.560;9.708;2024-03-17T06:20:19;9.02;;;4.60;;
31782;SDS011;18351;47.560;9.708;2024-03-17T06:22:48;8.32;;;4.45;;
31782;SDS011;18351;47.560;9.708;2024-03-17T06:25:14;9.80;;;4.00;;
31782;SDS011;18351;47.560;9.708;2024-03-17T06:27:40;10.77;;;4.47;;
31782;SDS011;18351;47.560;9.708;2024-03-17T06:30:06;7.70;;;4.63;;
31782;SDS011;18351;47.560;9.708;2024-03-17T06:32:35;6.72;;;4.28;;
31782;SDS011;18351;47.560;9.708;2024-03-17T06:35:01;7.57;;;4.30;;
31782;SDS011;18351;47.560;9.708;2024-03-17T06:37:27;5.97;;;4.13;;
31782;SDS011;18351;47.560;9.708;2024-03-17T06:39:53;8.00;;;4.25;;
31782;SDS011;18351;47.560;9.708;2024-03-17T06:42:18;9.57;;;4.45;;
31782;SDS011;18351;47.560;9.708;2024-03-17T06:44:44;11.95;;;4.53;;
31782;SDS011;18351;47.560;9.708;2024-03-17T06:47:10;6.82;;;4.55;;
31782;SDS011;18351;47.560;9.708;2024-03-17T06:49:35;7.63;;;4.35;;
31782;SDS011;18351;47.560;9.708;2024-03-17T06:52:01;5.25;;;4.43;;
31782;SDS011;18351;47.560;9.708;2024-03-17T06:54:27;5.95;;;4.30;;
31782;SDS011;18351;47.560;9.708;2024-03-17T06:56:53;6.18;;;4.22;;
31782;SDS011;18351;47.560;9.708;2024-03-17T06:59:18;4.93;;;3.42;;
31782;SDS011;18351;47.560;9.708;2024-03-17T07:01:45;6.70;;;3.60;;
31782;SDS011;18351;47.560;9.708;2024-03-17T07:04:11;4.45;;;2.85;;
31782;SDS011;18351;47.560;9.708;2024-03-17T07:06:37;3.53;;;2.63;;
31782;SDS011;18351;47.560;9.708;2024-03-17T07:09:03;4.22;;;2.58;;
31782;SDS011;18351;47.560;9.708;2024-03-17T07:11:29;3.30;;;2.42;;
31782;SDS011;18351;47.560;9.708;2024-03-17T07:13:54;10.30;;;2.40;;
31782;SDS011;18351;47.560;9.708;2024-03-17T07:16:20;3.35;;;2.40;;
31782;SDS011;18351;47.560;9.708;2024-03-17T07:18:50;2.78;;;1.80;;
31782;SDS011;18351;47.560;9.708;2024-03-17T07:21:17;7.13;;;3.05;;
31782;SDS011;18351;47.560;9.708;2024-03-17T07:23:43;3.50;;;2.10;;
31782;SDS011;18351;47.560;9.708;2024-03-17T07:26:09;4.63;;;2.05;;
31782;SDS011;18351;47.560;9.708;2024-03-17T07:28:35;7.50;;;2.13;;
31782;SDS011;18351;47.560;9.708;2024-03-17T07:31:05;4.25;;;1.98;;
31782;SDS011;18351;47.560;9.708;2024-03-17T07:33:33;5.07;;;1.90;;
31782;SDS011;18351;47.560;9.708;2024-03-17T07:35:58;4.95;;;2.05;;
31782;SDS011;18351;47.560;9.708;2024-03-17T07:38:28;3.08;;;2.05;;
31782;SDS011;18351;47.560;9.708;2024-03-17T07:41:02;4.40;;;2.45;;
31782;SDS011;18351;47.560;9.708;2024-03-17T07:43:29;4.68;;;2.72;;
31782;SDS011;18351;47.560;9.708;2024-03-17T07:45:57;3.58;;;2.17;;
31782;SDS011;18351;47.560;9.708;2024-03-17T07:48:26;6.40;;;2.60;;
31782;SDS011;18351;47.560;9.708;2024-03-17T07:51:15;3.70;;;1.80;;
31782;SDS011;18351;47.560;9.708;2024-03-17T07:53:42;3.03;;;1.85;;
31782;SDS011;18351;47.560;9.708;2024-03-17T07:56:15;2.45;;;1.35;;
31782;SDS011;18351;47.560;9.708;2024-03-17T07:58:44;6.60;;;2.28;;
31782;SDS011;18351;47.560;9.708;2024-03-17T08:01:11;2.45;;;1.90;;
31782;SDS011;18351;47.560;9.708;2024-03-17T08:03:38;3.63;;;1.80;;
31782;SDS011;18351;47.560;9.708;2024-03-17T08:06:05;2.88;;;1.90;;
31782;SDS011;18351;47.560;9.708;2024-03-17T08:08:32;3.25;;;2.28;;
31782;SDS011;18351;47.560;9.708;2024-03-17T08:10:58;3.78;;;2.38;;
31782;SDS011;18351;47.560;9.708;2024-03-17T08:13:24;6.28;;;2.72;;
31782;SDS011;18351;47.560;9.708;2024-03-17T08:15:57;9.63;;;2.80;;
31782;SDS011;18351;47.560;9.708;2024-03-17T08:18:24;3.67;;;1.95;;
31782;SDS011;18351;47.560;9.708;2024-03-17T08:20:52;3.25;;;1.60;;
31782;SDS011;18351;47.560;9.708;2024-03-17T08:23:18;2.08;;;1.75;;
31782;SDS011;18351;47.560;9.708;2024-03-17T08:25:51;2.30;;;1.63;;
31782;SDS011;18351;47.560;9.708;2024-03-17T08:28:21;4.85;;;2.00;;
31782;SDS011;18351;47.560;9.708;2024-03-17T08:30:56;2.88;;;1.63;;
31782;SDS011;18351;47.560;9.708;2024-03-17T08:33:23;2.47;;;1.52;;
31782;SDS011;18351;47.560;9.708;2024-03-17T08:36:01;2.92;;;2.17;;
31782;SDS011;18351;47.560;9.708;2024-03-17T08:38:28;3.90;;;1.95;;
31782;SDS011;18351;47.560;9.708;2024-03-17T08:40:56;2.13;;;1.83;;
31782;SDS011;18351;47.560;9.708;2024-03-17T08:43:22;2.85;;;2.25;;
31782;SDS011;18351;47.560;9.708;2024-03-17T08:45:55;2.00;;;1.40;;
31782;SDS011;18351;47.560;9.708;2024-03-17T08:48:34;4.80;;;1.80;;
31782;SDS011;18351;47.560;9.708;2024-03-17T08:51:01;2.75;;;2.10;;
31782;SDS011;18351;47.560;9.708;2024-03-17T08:53:28;4.43;;;1.83;;
31782;SDS011;18351;47.560;9.708;2024-03-17T08:55:54;5.55;;;2.00;;
31782;SDS011;18351;47.560;9.708;2024-03-17T08:58:20;5.18;;;2.10;;
31782;SDS011;18351;47.560;9.708;2024-03-17T09:00:46;4.05;;;1.73;;
31782;SDS011;18351;47.560;9.708;2024-03-17T09:03:12;3.05;;;1.90;;
31782;SDS011;18351;47.560;9.708;2024-03-17T09:05:38;2.72;;;1.60;;
31782;SDS011;18351;47.560;9.708;2024-03-17T09:08:05;2.45;;;1.67;;
31782;SDS011;18351;47.560;9.708;2024-03-17T09:10:38;2.83;;;1.70;;
31782;SDS011;18351;47.560;9.708;2024-03-17T09:13:04;2.55;;;1.70;;
31782;SDS011;18351;47.560;9.708;2024-03-17T09:15:30;3.90;;;1.70;;
31782;SDS011;18351;47.560;9.708;2024-03-17T09:17:56;1.50;;;1.30;;
31782;SDS011;18351;47.560;9.708;2024-03-17T09:20:21;3.20;;;1.50;;
31782;SDS011;18351;47.560;9.708;2024-03-17T09:22:47;1.67;;;1.58;;
31782;SDS011;18351;47.560;9.708;2024-03-17T09:25:13;2.50;;;1.60;;
31782;SDS011;18351;47.560;9.708;2024-03-17T09:27:39;4.93;;;1.60;;
31782;SDS011;18351;47.560;9.708;2024-03-17T09:30:05;1.60;;;1.33;;
31782;SDS011;18351;47.560;9.708;2024-03-17T09:32:33;3.30;;;1.80;;
31782;SDS011;18351;47.560;9.708;2024-03-17T09:34:59;4.32;;;1.45;;
31782;SDS011;18351;47.560;9.708;2024-03-17T09:37:24;1.63;;;1.08;;
31782;SDS011;18351;47.560;9.708;2024-03-17T09:39:50;2.67;;;1.20;;
31782;SDS011;18351;47.560;9.708;2024-03-17T09:42:19;2.42;;;1.60;;
31782;SDS011;18351;47.560;9.708;2024-03-17T09:44:48;2.00;;;1.30;;
31782;SDS011;18351;47.560;9.708;2024-03-17T09:47:19;1.98;;;1.38;;
31782;SDS011;18351;47.560;9.708;2024-03-17T09:49:46;1.85;;;1.50;;
31782;SDS011;18351;47.560;9.708;2024-03-17T09:52:17;2.83;;;1.38;;
31782;SDS011;18351;47.560;9.708;2024-03-17T09:54:44;4.60;;;1.50;;
31782;SDS011;18351;47.560;9.708;2024-03-17T09:57:17;1.40;;;1.30;;
31782;SDS011;18351;47.560;9.708;2024-03-17T09:59:42;3.63;;;1.40;;
31782;SDS011;18351;47.560;9.708;2024-03-17T10:02:15;3.17;;;1.40;;
31782;SDS011;18351;47.560;9.708;2024-03-17T10:04:43;2.25;;;1.30;;
31782;SDS011;18351;47.560;9.708;2024-03-17T10:07:09;4.03;;;1.50;;
31782;SDS011;18351;47.560;9.708;2024-03-17T10:09:34;2.13;;;1.55;;
31782;SDS011;18351;47.560;9.708;2024-03-17T10:12:01;2.92;;;1.42;;
31782;SDS011;18351;47.560;9.708;2024-03-17T10:14:27;3.10;;;1.42;;
31782;SDS011;18351;47.560;9.708;2024-03-17T10:16:52;1.95;;;1.38;;
31782;SDS011;18351;47.560;9.708;2024-03-17T10:19:22;2.42;;;1.60;;
31782;SDS011;18351;47.560;9.708;2024-03-17T10:21:49;5.15;;;1.40;;
31782;SDS011;18351;47.560;9.708;2024-03-17T10:26:48;2.28;;;1.42;;
31782;SDS011;18351;47.560;9.708;2024-03-17T10:31:49;3.20;;;1.73;;
31782;SDS011;18351;47.560;9.708;2024-03-17T10:34:17;2.55;;;1.83;;
31782;SDS011;18351;47.560;9.708;2024-03-17T10:36:46;3.05;;;1.58;;
31782;SDS011;18351;47.560;9.708;2024-03-17T10:39:22;2.17;;;1.50;;
31782;SDS011;18351;47.560;9.708;2024-03-17T10:41:59;2.33;;;1.70;;
31782;SDS011;18351;47.560;9.708;2024-03-17T10:44:29;1.95;;;1.63;;
31782;SDS011;18351;47.560;9.708;2024-03-17T10:46:57;3.05;;;1.70;;
31782;SDS011;18351;47.560;9.708;2024-03-17T10:49:32;2.05;;;1.45;;
31782;SDS011;18351;47.560;9.708;2024-03-17T10:52:03;2.45;;;1.80;;
31782;SDS011;18351;47.560;9.708;2024-03-17T10:54:30;3.20;;;1.77;;
31782;SDS011;18351;47.560;9.708;2024-03-17T10:56:57;1.83;;;1.67;;
31782;SDS011;18351;47.560;9.708;2024-03-17T10:59:45;4.82;;;3.15;;
31782;SDS011;18351;47.560;9.708;2024-03-17T11:02:23;8.57;;;3.10;;
31782;SDS011;18351;47.560;9.708;2024-03-17T11:04:51;5.75;;;2.33;;
31782;SDS011;18351;47.560;9.708;2024-03-17T11:07:18;4.93;;;2.72;;
31782;SDS011;18351;47.560;9.708;2024-03-17T11:09:45;6.55;;;2.28;;
31782;SDS011;18351;47.560;9.708;2024-03-17T11:17:45;4.50;;;1.88;;
31782;SDS011;18351;47.560;9.708;2024-03-17T11:20:15;2.17;;;1.63;;
31782;SDS011;18351;47.560;9.708;2024-03-17T11:22:44;3.33;;;2.05;;
31782;SDS011;18351;47.560;9.708;2024-03-17T11:27:54;2.95;;;2.38;;
31782;SDS011;18351;47.560;9.708;2024-03-17T11:41:40;5.68;;;2.67;;
31782;SDS011;18351;47.560;9.708;2024-03-17T11:44:15;3.10;;;2.75;;
31782;SDS011;18351;47.560;9.708;2024-03-17T11:52:14;4.88;;;3.53;;
31782;SDS011;18351;47.560;9.708;2024-03-17T11:54:42;6.80;;;4.28;;
31782;SDS011;18351;47.560;9.708;2024-03-17T11:57:09;5.78;;;4.50;;
31782;SDS011;18351;47.560;9.708;2024-03-17T11:59:36;6.05;;;4.20;;
31782;SDS011;18351;47.560;9.708;2024-03-17T12:02:09;6.88;;;4.00;;
31782;SDS011;18351;47.560;9.708;2024-03-17T12:05:00;6.93;;;4.40;;
31782;SDS011;18351;47.560;9.708;2024-03-17T12:07:27;4.78;;;3.58;;
31782;SDS011;18351;47.560;9.708;2024-03-17T12:09:54;6.75;;;5.00;;
31782;SDS011;18351;47.560;9.708;2024-03-17T12:12:25;7.07;;;5.43;;
31782;SDS011;18351;47.560;9.708;2024-03-17T12:15:00;12.18;;;5.20;;
31782;SDS011;18351;47.560;9.708;2024-03-17T12:17:27;6.70;;;5.30;;
31782;SDS011;18351;47.560;9.708;2024-03-17T12:19:53;5.90;;;4.97;;
31782;SDS011;18351;47.560;9.708;2024-03-17T12:22:21;7.47;;;4.93;;
31782;SDS011;18351;47.560;9.708;2024-03-17T12:24:49;5.00;;;4.50;;
31782;SDS011;18351;47.560;9.708;2024-03-17T12:27:19;9.20;;;5.20;;
31782;SDS011;18351;47.560;9.708;2024-03-17T12:29:50;7.35;;;5.40;;
31782;SDS011;18351;47.560;9.708;2024-03-17T12:32:18;11.00;;;5.57;;
31782;SDS011;18351;47.560;9.708;2024-03-17T12:34:51;9.05;;;5.70;;
31782;SDS011;18351;47.560;9.708;2024-03-17T12:37:18;7.15;;;5.32;;
31782;SDS011;18351;47.560;9.708;2024-03-17T12:39:45;6.95;;;5.13;;
31782;SDS011;18351;47.560;9.708;2024-03-17T12:42:12;8.00;;;5.78;;
31782;SDS011;18351;47.560;9.708;2024-03-17T12:47:18;6.63;;;5.00;;
31782;SDS011;18351;47.560;9.708;2024-03-17T12:49:48;7.15;;;4.90;;
31782;SDS011;18351;47.560;9.708;2024-03-17T12:52:19;7.20;;;5.68;;
31782;SDS011;18351;47.560;9.708;2024-03-17T12:54:45;9.32;;;6.00;;
31782;SDS011;18351;47.560;9.708;2024-03-17T12:57:41;7.40;;;5.53;;
31782;SDS011;18351;47.560;9.708;2024-03-17T13:00:25;13.23;;;6.18;;
31782;SDS011;18351;47.560;9.708;2024-03-17T13:02:57;6.43;;;5.30;;
31782;SDS011;18351;47.560;9.708;2024-03-17T13:05:32;7.45;;;5.13;;
31782;SDS011;18351;47.560;9.708;2024-03-17T13:07:59;9.88;;;5.57;;
31782;SDS011;18351;47.560;9.708;2024-03-17T13:10:26;7.57;;;4.85;;
31782;SDS011;18351;47.560;9.708;2024-03-17T13:12:59;6.28;;;4.63;;
31782;SDS011;18351;47.560;9.708;2024-03-17T13:15:29;5.28;;;4.00;;
31782;SDS011;18351;47.560;9.708;2024-03-17T13:17:56;5.32;;;4.22;;
31782;SDS011;18351;47.560;9.708;2024-03-17T13:20:25;6.03;;;4.25;;
31782;SDS011;18351;47.560;9.708;2024-03-17T13:22:51;7.30;;;4.10;;
31782;SDS011;18351;47.560;9.708;2024-03-17T13:25:17;6.05;;;3.35;;
31782;SDS011;18351;47.560;9.708;2024-03-17T13:27:46;4.63;;;3.42;;
31782;SDS011;18351;47.560;9.708;2024-03-17T13:30:13;5.45;;;3.60;;
31782;SDS011;18351;47.560;9.708;2024-03-17T13:32:39;6.32;;;4.30;;
31782;SDS011;18351;47.560;9.708;2024-03-17T13:35:10;6.25;;;3.67;;
31782;SDS011;18351;47.560;9.708;2024-03-17T13:37:40;6.63;;;3.85;;
31782;SDS011;18351;47.560;9.708;2024-03-17T13:40:06;6.30;;;3.65;;
31782;SDS011;18351;47.560;9.708;2024-03-17T13:42:32;8.50;;;4.30;;
31782;SDS011;18351;47.560;9.708;2024-03-17T13:44:58;8.38;;;4.75;;
31782;SDS011;18351;47.560;9.708;2024-03-17T13:47:24;9.93;;;4.65;;
31782;SDS011;18351;47.560;9.708;2024-03-17T13:49:50;8.90;;;4.60;;
31782;SDS011;18351;47.560;9.708;2024-03-17T13:52:15;6.00;;;3.85;;
31782;SDS011;18351;47.560;9.708;2024-03-17T13:54:41;7.28;;;3.63;;
31782;SDS011;18351;47.560;9.708;2024-03-17T13:57:06;7.82;;;4.07;;
31782;SDS011;18351;47.560;9.708;2024-03-17T13:59:32;6.25;;;3.83;;
31782;SDS011;18351;47.560;9.708;2024-03-17T14:01:59;7.75;;;3.47;;
31782;SDS011;18351;47.560;9.708;2024-03-17T14:04:24;7.13;;;3.72;;
31782;SDS011;18351;47.560;9.708;2024-03-17T14:06:50;6.93;;;3.65;;
31782;SDS011;18351;47.560;9.708;2024-03-17T14:09:16;6.15;;;4.00;;
31782;SDS011;18351;47.560;9.708;2024-03-17T14:11:43;10.25;;;3.70;;
31782;SDS011;18351;47.560;9.708;2024-03-17T14:14:10;8.02;;;3.88;;
31782;SDS011;18351;47.560;9.708;2024-03-17T14:16:35;6.03;;;3.67;;
31782;SDS011;18351;47.560;9.708;2024-03-17T14:19:01;6.95;;;3.53;;
31782;SDS011;18351;47.560;9.708;2024-03-17T14:21:27;6.30;;;3.60;;
31782;SDS011;18351;47.560;9.708;2024-03-17T14:23:53;5.47;;;3.53;;
31782;SDS011;18351;47.560;9.708;2024-03-17T14:26:19;8.18;;;3.67;;
31782;SDS011;18351;47.560;9.708;2024-03-17T14:28:46;3.92;;;3.17;;
31782;SDS011;18351;47.560;9.708;2024-03-17T14:31:12;5.07;;;3.08;;
31782;SDS011;18351;47.560;9.708;2024-03-17T14:33:37;9.30;;;4.07;;
31782;SDS011;18351;47.560;9.708;2024-03-17T14:36:03;5.53;;;3.13;;
31782;SDS011;18351;47.560;9.708;2024-03-17T14:38:29;5.25;;;3.30;;
31782;SDS011;18351;47.560;9.708;2024-03-17T14:40:55;4.10;;;3.40;;
31782;SDS011;18351;47.560;9.708;2024-03-17T14:43:20;5.10;;;2.97;;
31782;SDS011;18351;47.560;9.708;2024-03-17T14:45:46;5.65;;;2.90;;
31782;SDS011;18351;47.560;9.708;2024-03-17T14:48:12;6.18;;;3.45;;
31782;SDS011;18351;47.560;9.708;2024-03-17T14:50:40;4.68;;;3.47;;
31782;SDS011;18351;47.560;9.708;2024-03-17T14:53:06;6.65;;;3.38;;
31782;SDS011;18351;47.560;9.708;2024-03-17T14:55:32;3.67;;;2.65;;
31782;SDS011;18351;47.560;9.708;2024-03-17T14:57:58;8.07;;;3.65;;
31782;SDS011;18351;47.560;9.708;2024-03-17T15:00:27;9.50;;;4.85;;
31782;SDS011;18351;47.560;9.708;2024-03-17T15:02:55;8.90;;;5.18;;
31782;SDS011;18351;47.560;9.708;2024-03-17T15:05:21;12.30;;;5.97;;
31782;SDS011;18351;47.560;9.708;2024-03-17T15:07:48;10.13;;;6.28;;
31782;SDS011;18351;47.560;9.708;2024-03-17T15:10:15;12.43;;;6.13;;
31782;SDS011;18351;47.560;9.708;2024-03-17T15:12:42;11.30;;;6.05;;
31782;SDS011;18351;47.560;9.708;2024-03-17T15:15:09;12.18;;;5.70;;
31782;SDS011;18351;47.560;9.708;2024-03-17T15:17:35;9.65;;;5.60;;
31782;SDS011;18351;47.560;9.708;2024-03-17T15:20:01;10.50;;;4.95;;
31782;SDS011;18351;47.560;9.708;2024-03-17T15:22:33;8.02;;;4.68;;
31782;SDS011;18351;47.560;9.708;2024-03-17T15:24:59;6.90;;;4.47;;